createdAt,value
2023-02-09T00:01:14.757Z,6.47
2023-02-09T00:03:16.343Z,6.43
2023-02-09T00:05:17.919Z,6.07
2023-02-09T00:07:19.503Z,6.22
2023-02-09T00:09:21.305Z,6.88
2023-02-09T00:11:46.388Z,7.63
2023-02-09T00:13:48.097Z,7.57
2023-02-09T00:15:51.729Z,6.70
2023-02-09T00:17:53.242Z,6.25
2023-02-09T00:19:55.199Z,6.15
2023-02-09T00:21:57.160Z,6.35
2023-02-09T00:23:59.808Z,6.35
2023-02-09T00:26:03.379Z,6.35
2023-02-09T00:28:05.691Z,7.07
2023-02-09T00:30:07.882Z,6.45
2023-02-09T00:32:09.544Z,8.38
2023-02-09T00:34:11.404Z,6.70
2023-02-09T00:36:14.481Z,6.72
2023-02-09T00:40:18.446Z,5.72
2023-02-09T00:42:19.985Z,6.72
2023-02-09T00:44:21.756Z,6.20
2023-02-09T00:46:23.870Z,7.03
2023-02-09T00:48:25.692Z,6.97
2023-02-09T00:50:29.105Z,6.75
2023-02-09T00:52:30.602Z,6.15
2023-02-09T00:54:32.318Z,6.82
2023-02-09T00:56:33.885Z,6.47
2023-02-09T00:58:35.444Z,5.78
2023-02-09T01:00:37.487Z,6.32
2023-02-09T01:02:39.211Z,6.43
2023-02-09T01:04:40.780Z,6.40
2023-02-09T01:06:42.610Z,6.85
2023-02-09T01:08:44.157Z,6.93
2023-02-09T01:10:47.051Z,7.10
2023-02-09T01:12:49.197Z,6.95
2023-02-09T01:14:50.783Z,5.80
2023-02-09T01:18:55.979Z,5.78
2023-02-09T01:20:57.593Z,6.22
2023-02-09T01:23:00.227Z,5.93
2023-02-09T01:25:01.708Z,6.25
2023-02-09T01:27:03.587Z,6.03
2023-02-09T01:29:06.504Z,6.43
2023-02-09T01:31:18.497Z,5.43
2023-02-09T01:33:20.044Z,6.15
2023-02-09T01:35:22.701Z,6.60
2023-02-09T01:37:24.364Z,5.93
2023-02-09T01:39:25.893Z,5.75
2023-02-09T01:41:28.371Z,5.68
2023-02-09T01:43:48.255Z,6.03
2023-02-09T01:45:55.322Z,7.45
2023-02-09T01:48:03.354Z,5.35
2023-02-09T01:50:05.425Z,6.07
2023-02-09T01:52:15.244Z,7.18
2023-02-09T01:54:20.883Z,6.55
2023-02-09T01:56:29.245Z,6.55
2023-02-09T01:58:32.097Z,6.53
2023-02-09T02:00:34.519Z,6.72
2023-02-09T02:02:37.964Z,6.55
2023-02-09T02:04:42.844Z,7.32
2023-02-09T02:06:44.947Z,6.32
2023-02-09T02:08:57.075Z,6.30
2023-02-09T02:10:58.727Z,5.60
2023-02-09T02:13:00.962Z,6.18
2023-02-09T02:15:02.546Z,6.40
2023-02-09T02:17:30.358Z,6.00
2023-02-09T02:22:17.671Z,4.57
2023-02-09T02:24:40.907Z,6.07
2023-02-09T02:26:54.862Z,6.57
2023-02-09T02:29:16.064Z,6.13
2023-02-09T02:31:48.712Z,5.10
2023-02-09T02:34:14.718Z,6.05
2023-02-09T02:36:45.725Z,5.80
2023-02-09T02:39:18.335Z,5.53
2023-02-09T02:41:25.976Z,6.05
2023-02-09T02:43:42.529Z,6.07
2023-02-09T02:46:02.373Z,5.85
2023-02-09T02:48:22.890Z,6.18
2023-02-09T02:50:30.457Z,6.50
2023-02-09T02:52:32.099Z,5.97
2023-02-09T02:54:50.220Z,5.80
2023-02-09T02:57:01.705Z,7.05
2023-02-09T02:59:08.657Z,4.95
2023-02-09T03:01:14.671Z,5.93
2023-02-09T03:03:21.799Z,5.70
2023-02-09T03:05:26.380Z,5.47
2023-02-09T03:07:28.948Z,6.00
2023-02-09T03:09:30.488Z,5.78
2023-02-09T03:11:37.609Z,5.82
2023-02-09T03:13:58.328Z,6.22
2023-02-09T03:16:33.820Z,6.35
2023-02-09T03:18:47.211Z,7.25
2023-02-09T03:20:54.765Z,7.82
2023-02-09T03:23:02.417Z,7.65
2023-02-09T03:25:17.959Z,7.00
2023-02-09T03:27:25.338Z,6.60
2023-02-09T03:29:28.080Z,6.15
2023-02-09T03:31:31.343Z,5.65
2023-02-09T03:35:41.358Z,5.40
2023-02-09T03:37:43.209Z,5.03
2023-02-09T03:39:44.925Z,5.93
2023-02-09T03:41:47.014Z,6.30
2023-02-09T03:44:07.044Z,5.18
2023-02-09T03:46:09.977Z,5.43
2023-02-09T03:48:11.633Z,6.03
2023-02-09T03:50:13.229Z,6.05
2023-02-09T03:52:16.606Z,6.30
2023-02-09T03:54:18.215Z,6.03
2023-02-09T03:56:19.793Z,6.07
2023-02-09T03:58:22.097Z,5.72
2023-02-09T04:00:23.715Z,6.60
2023-02-09T04:02:25.216Z,5.88
2023-02-09T04:04:27.018Z,6.47
2023-02-09T04:06:31.530Z,6.20
2023-02-09T04:08:33.205Z,6.32
2023-02-09T04:10:34.776Z,6.13
2023-02-09T04:12:36.379Z,6.07
2023-02-09T04:14:37.977Z,6.22
2023-02-09T04:16:39.918Z,6.45
2023-02-09T04:18:41.523Z,5.88
2023-02-09T04:20:43.494Z,5.05
2023-02-09T04:22:45.666Z,5.53
2023-02-09T04:24:47.171Z,5.93
2023-02-09T04:26:48.698Z,6.57
2023-02-09T04:28:50.564Z,6.32
2023-02-09T04:30:54.611Z,5.70
2023-02-09T04:32:56.184Z,5.70
2023-02-09T04:34:57.691Z,5.93
2023-02-09T04:36:59.294Z,6.18
2023-02-09T04:39:00.849Z,4.68
2023-02-09T04:41:03.706Z,6.18
2023-02-09T04:43:05.279Z,6.43
2023-02-09T04:45:07.176Z,6.15
2023-02-09T04:47:08.664Z,6.28
2023-02-09T04:49:10.127Z,5.88
2023-02-09T04:51:12.094Z,6.07
2023-02-09T04:53:14.585Z,6.05
2023-02-09T04:55:16.464Z,5.53
2023-02-09T04:57:36.720Z,5.90
2023-02-09T04:59:40.400Z,5.82
2023-02-09T05:01:41.924Z,6.25
2023-02-09T05:03:43.560Z,5.20
2023-02-09T05:05:45.071Z,5.40
2023-02-09T05:07:46.821Z,5.90
2023-02-09T05:09:48.557Z,5.60
2023-02-09T05:11:50.096Z,5.57
2023-02-09T05:13:51.693Z,6.07
2023-02-09T05:15:53.814Z,5.55
2023-02-09T05:17:55.367Z,4.88
2023-02-09T05:19:57.354Z,5.80
2023-02-09T05:21:59.270Z,5.55
2023-02-09T05:24:00.797Z,5.63
2023-02-09T05:26:02.483Z,5.72
2023-02-09T05:28:04.446Z,5.97
2023-02-09T05:30:06.818Z,6.57
2023-02-09T05:32:08.495Z,7.07
2023-02-09T05:34:10.184Z,6.47
2023-02-09T05:36:12.743Z,6.57
2023-02-09T05:38:14.571Z,5.88
2023-02-09T05:40:16.461Z,6.32
2023-02-09T05:42:18.283Z,7.32
2023-02-09T05:44:19.799Z,6.40
2023-02-09T05:46:21.353Z,5.43
2023-02-09T05:48:22.962Z,5.40
2023-02-09T05:50:24.574Z,6.28
2023-02-09T05:52:29.052Z,5.63
2023-02-09T05:54:30.888Z,5.47
2023-02-09T05:56:32.524Z,5.53
2023-02-09T05:58:34.016Z,5.47
2023-02-09T06:00:35.915Z,5.15
2023-02-09T06:02:37.488Z,5.13
2023-02-09T06:04:39.023Z,4.95
2023-02-09T06:06:40.667Z,4.90
2023-02-09T06:08:42.363Z,5.88
2023-02-09T06:10:44.311Z,5.22
2023-02-09T06:12:46.201Z,5.35
2023-02-09T06:14:47.776Z,7.13
2023-02-09T06:16:49.379Z,6.57
2023-02-09T06:18:51.503Z,6.68
2023-02-09T06:20:53.890Z,6.82
2023-02-09T06:22:55.441Z,7.05
2023-02-09T06:24:57.328Z,7.20
2023-02-09T06:26:58.871Z,6.80
2023-02-09T06:29:00.394Z,7.15
2023-02-09T06:31:02.583Z,7.18
2023-02-09T06:33:04.707Z,8.30
2023-02-09T06:35:06.963Z,6.90
2023-02-09T06:37:08.784Z,7.68
2023-02-09T06:39:11.009Z,6.20
2023-02-09T06:41:12.733Z,6.13
2023-02-09T06:43:14.305Z,6.57
2023-02-09T06:45:17.378Z,6.80
2023-02-09T06:47:18.877Z,6.05
2023-02-09T06:49:23.534Z,7.78
2023-02-09T06:51:25.122Z,8.60
2023-02-09T06:53:27.126Z,6.07
2023-02-09T06:55:29.294Z,6.65
2023-02-09T06:57:31.269Z,5.57
2023-02-09T06:59:32.739Z,6.45
2023-02-09T07:01:34.302Z,4.18
2023-02-09T07:03:37.068Z,5.90
2023-02-09T07:05:38.677Z,5.32
2023-02-09T07:07:40.799Z,5.10
2023-02-09T07:09:42.428Z,5.43
2023-02-09T07:11:44.328Z,5.05
2023-02-09T07:13:46.531Z,5.30
2023-02-09T07:15:56.098Z,7.28
2023-02-09T07:17:58.273Z,5.68
2023-02-09T07:19:59.813Z,5.65
2023-02-09T07:22:01.906Z,5.38
2023-02-09T07:24:03.743Z,5.70
2023-02-09T07:26:07.767Z,4.97
2023-02-09T07:28:09.854Z,5.57
2023-02-09T07:30:12.653Z,5.25
2023-02-09T07:32:14.784Z,5.78
2023-02-09T07:34:17.200Z,5.57
2023-02-09T07:36:18.889Z,6.28
2023-02-09T07:38:20.663Z,4.47
2023-02-09T07:40:22.334Z,5.05
2023-02-09T07:42:23.886Z,5.95
2023-02-09T07:44:32.532Z,5.63
2023-02-09T07:46:34.076Z,5.78
2023-02-09T07:48:36.600Z,5.72
2023-02-09T07:50:38.626Z,5.30
2023-02-09T07:52:40.156Z,5.28
2023-02-09T07:54:41.756Z,5.78
2023-02-09T07:56:43.347Z,6.47
2023-02-09T07:58:45.304Z,5.55
2023-02-09T08:00:48.441Z,6.05
2023-02-09T08:02:50.235Z,5.00
2023-02-09T08:04:52.580Z,5.20
2023-02-09T08:06:55.163Z,5.15
2023-02-09T08:08:56.669Z,4.82
2023-02-09T08:11:00.910Z,5.80
2023-02-09T08:13:03.459Z,5.25
2023-02-09T08:15:05.537Z,5.15
2023-02-09T08:17:20.950Z,5.75
2023-02-09T08:19:24.305Z,5.40
2023-02-09T08:21:27.913Z,6.10
2023-02-09T08:23:33.458Z,5.85
2023-02-09T08:25:36.798Z,6.03
2023-02-09T08:27:40.278Z,5.82
2023-02-09T08:29:41.911Z,4.93
2023-02-09T08:31:43.519Z,5.18
2023-02-09T08:33:47.274Z,5.72
2023-02-09T08:35:52.302Z,6.78
2023-02-09T08:37:53.954Z,4.28
2023-02-09T08:39:55.592Z,5.32
2023-02-09T08:41:57.099Z,5.65
2023-02-09T08:43:58.585Z,5.00
2023-02-09T08:46:05.960Z,5.00
2023-02-09T08:48:11.377Z,5.18
2023-02-09T08:50:12.928Z,5.50
2023-02-09T08:52:15.561Z,5.18
2023-02-09T08:54:17.131Z,5.35
2023-02-09T08:56:20.270Z,4.95
2023-02-09T08:58:21.895Z,5.05
2023-02-09T09:00:23.545Z,5.72
2023-02-09T09:02:25.436Z,5.68
2023-02-09T09:04:27.955Z,5.40
2023-02-09T09:06:29.533Z,5.47
2023-02-09T09:08:32.654Z,5.25
2023-02-09T09:10:34.309Z,6.15
2023-02-09T09:12:35.970Z,5.93
2023-02-09T09:14:38.027Z,5.72
2023-02-09T09:16:39.730Z,5.50
2023-02-09T09:18:41.627Z,5.35
2023-02-09T09:20:43.310Z,6.03
2023-02-09T09:22:44.895Z,5.78
2023-02-09T09:24:46.428Z,5.57
2023-02-09T09:26:47.959Z,5.78
2023-02-09T09:28:51.069Z,6.22
2023-02-09T09:30:52.652Z,5.15
2023-02-09T09:32:55.633Z,5.13
2023-02-09T09:34:58.903Z,5.72
2023-02-09T09:37:00.566Z,5.93
2023-02-09T09:39:02.084Z,5.97
2023-02-09T09:41:17.709Z,5.35
2023-02-09T09:43:28.390Z,5.53
2023-02-09T09:45:34.986Z,5.10
2023-02-09T09:47:39.406Z,5.65
2023-02-09T09:49:41.092Z,5.63
2023-02-09T09:51:47.150Z,5.72
2023-02-09T09:53:53.087Z,5.85
2023-02-09T09:55:59.140Z,6.18
2023-02-09T09:58:04.122Z,6.18
2023-02-09T10:00:21.281Z,6.18
2023-02-09T10:02:30.187Z,5.40
2023-02-09T10:04:32.986Z,6.18
2023-02-09T10:06:34.829Z,6.15
2023-02-09T10:08:41.448Z,7.00
2023-02-09T10:10:54.901Z,6.70
2023-02-09T10:12:58.763Z,6.20
2023-02-09T10:15:35.094Z,7.53
2023-02-09T10:17:36.735Z,5.68
2023-02-09T10:19:38.419Z,6.50
2023-02-09T10:21:40.065Z,6.13
2023-02-09T10:23:45.115Z,7.60
2023-02-09T10:25:47.081Z,6.13
2023-02-09T10:27:48.910Z,7.03
2023-02-09T10:29:50.436Z,7.15
2023-02-09T10:32:07.474Z,7.22
2023-02-09T10:34:08.938Z,6.65
2023-02-09T10:36:45.906Z,6.60
2023-02-09T10:38:47.716Z,6.78
2023-02-09T10:40:50.252Z,7.80
2023-02-09T10:42:58.133Z,6.93
2023-02-09T10:45:24.726Z,6.85
2023-02-09T10:47:29.049Z,7.25
2023-02-09T10:49:36.441Z,7.07
2023-02-09T10:51:38.496Z,6.95
2023-02-09T10:53:56.727Z,6.88
2023-02-09T10:56:03.346Z,7.10
2023-02-09T10:58:09.365Z,7.13
2023-02-09T11:00:17.420Z,7.63
2023-02-09T11:02:41.352Z,7.25
2023-02-09T11:04:46.800Z,7.80
2023-02-09T11:06:54.467Z,7.32
2023-02-09T11:09:05.636Z,7.82
2023-02-09T11:11:20.163Z,7.60
2023-02-09T11:15:31.785Z,7.40
2023-02-09T11:20:08.696Z,7.85
2023-02-09T11:22:13.373Z,7.55
2023-02-09T11:24:38.645Z,8.00
2023-02-09T11:26:51.189Z,7.82
2023-02-09T11:29:05.714Z,8.43
2023-02-09T11:33:26.016Z,8.00
2023-02-09T11:35:45.451Z,7.78
2023-02-09T11:38:01.524Z,8.73
2023-02-09T11:40:24.055Z,8.52
2023-02-09T11:42:44.233Z,8.43
2023-02-09T11:44:54.739Z,8.75
2023-02-09T11:47:04.152Z,8.48
2023-02-09T11:49:16.249Z,8.77
2023-02-09T11:51:26.563Z,8.77
2023-02-09T11:53:34.996Z,9.25
2023-02-09T11:55:46.441Z,8.85
2023-02-09T11:57:54.769Z,8.88
2023-02-09T12:02:32.852Z,8.93
2023-02-09T12:04:52.424Z,8.90
2023-02-09T12:07:01.284Z,8.40
2023-02-09T12:09:23.772Z,8.48
2023-02-09T12:12:02.840Z,9.68
2023-02-09T12:14:04.690Z,8.82
2023-02-09T12:16:20.354Z,7.68
2023-02-09T12:18:25.992Z,9.07
2023-02-09T12:20:36.559Z,8.55
2023-02-09T12:22:52.332Z,8.55
2023-02-09T12:25:12.178Z,8.93
2023-02-09T12:27:26.342Z,7.75
2023-02-09T12:29:40.871Z,7.82
2023-02-09T12:32:01.658Z,7.88
2023-02-09T12:34:21.042Z,7.97
2023-02-09T12:36:35.845Z,8.38
2023-02-09T12:38:56.901Z,9.23
2023-02-09T12:41:07.591Z,8.40
2023-02-09T12:43:26.124Z,8.75
2023-02-09T12:45:35.838Z,9.13
2023-02-09T12:47:56.728Z,8.50
2023-02-09T12:50:20.399Z,8.88
2023-02-09T12:52:22.024Z,8.55
2023-02-09T12:54:32.777Z,9.30
2023-02-09T12:56:34.527Z,9.02
2023-02-09T12:58:37.943Z,9.25
2023-02-09T13:00:41.548Z,9.68
2023-02-09T13:02:49.984Z,8.88
2023-02-09T13:05:14.744Z,8.77
2023-02-09T13:07:25.379Z,8.48
2023-02-09T13:09:35.964Z,9.45
2023-02-09T13:11:49.199Z,9.45
2023-02-09T13:14:07.485Z,9.73
2023-02-09T13:16:39.331Z,8.95
2023-02-09T13:19:18.623Z,9.60
2023-02-09T13:21:48.143Z,9.45
2023-02-09T13:24:07.627Z,8.75
2023-02-09T13:26:20.195Z,8.85
2023-02-09T13:28:26.489Z,9.18
2023-02-09T13:30:31.459Z,6.20
2023-02-09T13:33:01.280Z,7.20
2023-02-09T13:35:18.128Z,5.22
2023-02-09T13:37:27.484Z,8.15
2023-02-09T13:39:35.579Z,5.53
2023-02-09T13:41:43.422Z,10.07
2023-02-09T13:43:46.738Z,10.13
2023-02-09T13:45:51.075Z,9.50
2023-02-09T13:47:53.788Z,9.90
2023-02-09T13:49:59.718Z,10.10
2023-02-09T13:52:12.010Z,9.57
2023-02-09T13:54:20.684Z,9.18
2023-02-09T13:56:22.522Z,9.25
2023-02-09T13:58:35.343Z,8.70
2023-02-09T14:00:55.864Z,8.20
2023-02-09T14:03:03.789Z,8.75
2023-02-09T14:05:07.475Z,9.38
2023-02-09T14:07:11.659Z,8.80
2023-02-09T14:09:22.719Z,9.50
2023-02-09T14:11:50.598Z,9.95
2023-02-09T14:13:58.422Z,9.43
2023-02-09T14:16:09.418Z,11.05
2023-02-09T14:18:28.568Z,10.48
2023-02-09T14:20:31.867Z,9.60
2023-02-09T14:22:37.570Z,9.57
2023-02-09T14:24:43.767Z,9.57
2023-02-09T14:26:50.250Z,8.77
2023-02-09T14:29:04.088Z,9.40
2023-02-09T14:31:07.082Z,9.35
2023-02-09T14:33:22.320Z,9.10
2023-02-09T14:35:29.357Z,9.27
2023-02-09T14:37:30.975Z,9.40
2023-02-09T14:39:32.520Z,9.77
2023-02-09T14:41:36.457Z,9.30
2023-02-09T14:43:38.232Z,9.60
2023-02-09T14:45:40.905Z,10.30
2023-02-09T14:47:44.747Z,9.52
2023-02-09T14:49:46.681Z,10.15
2023-02-09T14:51:50.648Z,10.00
2023-02-09T14:53:52.131Z,9.82
2023-02-09T14:55:54.754Z,9.38
2023-02-09T14:57:56.555Z,8.77
2023-02-09T14:59:58.417Z,9.27
2023-02-09T15:02:00.109Z,10.05
2023-02-09T15:04:01.723Z,10.25
2023-02-09T15:06:05.566Z,9.45
2023-02-09T15:08:10.864Z,10.07
2023-02-09T15:10:24.412Z,10.73
2023-02-09T15:12:27.995Z,9.88
2023-02-09T15:14:29.543Z,9.20
2023-02-09T15:16:31.183Z,9.57
2023-02-09T15:18:33.161Z,9.02
2023-02-09T15:20:34.691Z,9.02
2023-02-09T15:22:36.316Z,8.77
2023-02-09T15:24:37.814Z,8.63
2023-02-09T15:26:39.656Z,8.57
2023-02-09T15:28:41.411Z,8.85
2023-02-09T15:30:42.968Z,8.27
2023-02-09T15:32:45.044Z,8.35
2023-02-09T15:34:46.809Z,8.60
2023-02-09T15:36:48.416Z,9.38
2023-02-09T15:38:50.214Z,9.90
2023-02-09T15:41:10.810Z,9.52
2023-02-09T15:43:36.625Z,8.30
2023-02-09T15:45:57.378Z,7.22
2023-02-09T15:47:59.334Z,7.68
2023-02-09T15:50:00.904Z,8.90
2023-02-09T15:52:02.684Z,8.07
2023-02-09T15:54:12.110Z,7.85
2023-02-09T15:56:15.356Z,8.27
2023-02-09T15:58:28.510Z,7.75
2023-02-09T16:00:31.249Z,7.35
2023-02-09T16:04:34.978Z,7.32
2023-02-09T16:06:36.602Z,7.05
2023-02-09T16:08:38.576Z,7.85
2023-02-09T16:10:40.160Z,7.43
2023-02-09T16:12:42.200Z,8.32
2023-02-09T16:14:44.676Z,8.20
2023-02-09T16:16:47.407Z,7.53
2023-02-09T16:18:49.021Z,7.30
2023-02-09T16:20:51.880Z,7.38
2023-02-09T16:24:55.922Z,7.78
2023-02-09T16:26:59.760Z,7.13
2023-02-09T16:29:01.370Z,8.07
2023-02-09T16:31:03.089Z,7.68
2023-02-09T16:33:04.826Z,7.50
2023-02-09T16:35:16.204Z,6.78
2023-02-09T16:37:29.973Z,7.32
2023-02-09T16:39:31.548Z,7.03
2023-02-09T16:41:49.659Z,7.50
2023-02-09T16:43:51.416Z,7.68
2023-02-09T16:46:03.453Z,7.38
2023-02-09T16:48:07.282Z,7.95
2023-02-09T16:50:33.069Z,7.75
2023-02-09T16:52:34.822Z,7.63
2023-02-09T16:54:43.337Z,7.97
2023-02-09T16:56:54.033Z,7.82
2023-02-09T16:58:55.925Z,7.88
2023-02-09T17:00:58.031Z,11.10
2023-02-09T17:03:02.516Z,8.95
2023-02-09T17:05:28.867Z,13.40
2023-02-09T17:07:39.715Z,7.00
2023-02-09T17:09:47.420Z,8.15
2023-02-09T17:11:48.933Z,7.10
2023-02-09T17:13:50.585Z,6.65
2023-02-09T17:15:55.623Z,7.38
2023-02-09T17:18:02.863Z,9.40
2023-02-09T17:20:04.887Z,8.18
2023-02-09T17:22:11.469Z,6.97
2023-02-09T17:24:16.577Z,8.82
2023-02-09T17:26:19.242Z,10.07
2023-02-09T17:28:26.197Z,12.65
2023-02-09T17:30:27.735Z,11.65
2023-02-09T17:32:29.322Z,11.02
2023-02-09T17:34:30.977Z,11.10
2023-02-09T17:36:32.873Z,8.10
2023-02-09T17:38:36.949Z,9.32
2023-02-09T17:40:38.495Z,8.95
2023-02-09T17:42:40.634Z,8.07
2023-02-09T17:44:46.397Z,8.25
2023-02-09T17:46:54.025Z,7.78
2023-02-09T17:48:55.520Z,8.13
2023-02-09T17:51:00.068Z,7.30
2023-02-09T17:53:01.938Z,8.45
2023-02-09T17:55:03.681Z,8.13
2023-02-09T17:57:05.674Z,12.15
2023-02-09T17:59:08.244Z,12.13
2023-02-09T18:01:30.910Z,11.60
2023-02-09T18:03:32.504Z,10.20
2023-02-09T18:05:35.902Z,11.18
2023-02-09T18:07:37.633Z,11.38
2023-02-09T18:09:39.370Z,14.10
2023-02-09T18:12:02.153Z,13.05
2023-02-09T18:14:03.899Z,10.45
2023-02-09T18:16:07.014Z,11.27
2023-02-09T18:20:20.623Z,8.23
2023-02-09T18:22:22.839Z,8.60
2023-02-09T18:24:27.166Z,7.78
2023-02-09T18:26:29.456Z,9.82
2023-02-09T18:28:31.128Z,9.55
2023-02-09T18:30:36.590Z,11.30
2023-02-09T18:32:38.134Z,12.45
2023-02-09T18:34:40.746Z,10.43
2023-02-09T18:36:42.417Z,9.88
2023-02-09T18:38:44.024Z,10.77
2023-02-09T18:40:45.767Z,11.25
2023-02-09T18:42:47.424Z,10.43
2023-02-09T18:44:48.944Z,10.20
2023-02-09T18:46:50.634Z,10.82
2023-02-09T18:48:53.950Z,10.18
2023-02-09T18:50:55.525Z,10.38
2023-02-09T18:52:59.973Z,9.70
2023-02-09T18:55:01.909Z,10.02
2023-02-09T18:57:03.740Z,9.80
2023-02-09T18:59:05.534Z,9.40
2023-02-09T19:01:10.808Z,9.75
2023-02-09T19:03:13.951Z,10.40
2023-02-09T19:05:17.892Z,11.38
2023-02-09T19:07:19.662Z,10.80
2023-02-09T19:09:21.287Z,11.52
2023-02-09T19:11:22.989Z,10.95
2023-02-09T19:13:24.492Z,10.75
2023-02-09T19:15:27.085Z,11.68
2023-02-09T19:17:29.219Z,13.80
2023-02-09T19:19:31.025Z,12.98
2023-02-09T19:21:32.577Z,13.75
2023-02-09T19:23:34.216Z,12.95
2023-02-09T19:25:37.119Z,15.10
2023-02-09T19:27:38.783Z,15.13
2023-02-09T19:29:43.759Z,14.23
2023-02-09T19:31:46.500Z,15.65
2023-02-09T19:33:48.090Z,15.07
2023-02-09T19:36:00.114Z,14.88
2023-02-09T19:38:01.732Z,12.85
2023-02-09T19:40:21.037Z,14.50
2023-02-09T19:42:22.614Z,16.67
2023-02-09T19:44:24.262Z,16.80
2023-02-09T19:46:26.001Z,14.60
2023-02-09T19:48:27.625Z,15.32
2023-02-09T19:50:29.339Z,16.92
2023-02-09T19:52:31.366Z,21.35
2023-02-09T19:54:34.958Z,14.90
2023-02-09T19:56:37.194Z,17.27
2023-02-09T19:58:39.155Z,20.80
2023-02-09T20:00:41.420Z,23.70
2023-02-09T20:02:42.968Z,23.67
2023-02-09T20:04:45.875Z,22.30
2023-02-09T20:06:47.707Z,25.50
2023-02-09T20:08:49.468Z,17.83
2023-02-09T20:10:50.970Z,17.08
2023-02-09T20:12:52.520Z,21.83
2023-02-09T20:14:54.593Z,19.58
2023-02-09T20:16:56.202Z,17.73
2023-02-09T20:18:57.726Z,15.90
2023-02-09T20:20:59.313Z,17.85
2023-02-09T20:23:00.863Z,17.20
2023-02-09T20:25:02.565Z,16.10
2023-02-09T20:27:04.802Z,16.17
2023-02-09T20:29:07.167Z,12.63
2023-02-09T20:31:10.129Z,12.40
2023-02-09T20:33:12.245Z,16.00
2023-02-09T20:35:13.932Z,8.68
2023-02-09T20:37:16.036Z,8.57
2023-02-09T20:39:17.776Z,9.55
2023-02-09T20:41:21.116Z,8.60
2023-02-09T20:43:41.146Z,8.30
2023-02-09T20:46:01.579Z,7.82
2023-02-09T20:48:05.416Z,9.07
2023-02-09T20:50:07.950Z,8.98
2023-02-09T20:52:09.870Z,10.00
2023-02-09T20:54:11.792Z,9.02
2023-02-09T20:56:13.397Z,9.20
2023-02-09T20:58:14.995Z,8.48
2023-02-09T21:00:16.896Z,9.32
2023-02-09T21:02:19.085Z,9.65
2023-02-09T21:04:20.646Z,9.23
2023-02-09T21:06:22.978Z,11.85
2023-02-09T21:08:24.793Z,13.70
2023-02-09T21:10:26.532Z,13.88
2023-02-09T21:12:28.151Z,13.10
2023-02-09T21:14:41.845Z,12.32
2023-02-09T21:16:44.638Z,13.55
2023-02-09T21:18:46.230Z,13.52
2023-02-09T21:20:49.197Z,12.40
2023-02-09T21:22:51.551Z,11.88
2023-02-09T21:24:53.107Z,12.68
2023-02-09T21:26:54.784Z,11.48
2023-02-09T21:28:57.304Z,12.35
2023-02-09T21:30:59.244Z,13.02
2023-02-09T21:33:00.982Z,11.00
2023-02-09T21:35:02.552Z,13.57
2023-02-09T21:37:07.677Z,13.25
2023-02-09T21:39:09.303Z,14.68
2023-02-09T21:41:32.824Z,13.25
2023-02-09T21:43:34.434Z,12.65
2023-02-09T21:45:39.662Z,15.25
2023-02-09T21:47:41.362Z,12.73
2023-02-09T21:49:43.440Z,13.07
2023-02-09T21:51:45.034Z,13.63
2023-02-09T21:53:47.580Z,13.23
2023-02-09T21:55:49.069Z,12.52
2023-02-09T21:57:50.691Z,13.10
2023-02-09T21:59:53.076Z,11.30
2023-02-09T22:01:55.306Z,10.73
2023-02-09T22:03:58.297Z,10.38
2023-02-09T22:08:02.930Z,10.50
2023-02-09T22:10:05.218Z,11.13
2023-02-09T22:12:07.490Z,13.55
2023-02-09T22:14:09.122Z,12.65
2023-02-09T22:16:18.299Z,12.48
2023-02-09T22:18:19.873Z,14.20
2023-02-09T22:20:21.754Z,16.63
2023-02-09T22:22:23.333Z,17.08
2023-02-09T22:24:24.995Z,16.25
2023-02-09T22:26:26.764Z,15.27
2023-02-09T22:28:29.089Z,14.10
2023-02-09T22:30:31.090Z,13.82
2023-02-09T22:32:32.679Z,14.55
2023-02-09T22:34:34.203Z,14.85
2023-02-09T22:36:36.267Z,15.10
2023-02-09T22:38:38.196Z,15.30
2023-02-09T22:40:39.970Z,12.50
2023-02-09T22:42:41.501Z,12.05
2023-02-09T22:44:43.042Z,12.77
2023-02-09T22:46:46.398Z,11.18
2023-02-09T22:48:56.198Z,12.48
2023-02-09T22:50:57.708Z,12.25
2023-02-09T22:52:59.462Z,12.95
2023-02-09T22:55:01.549Z,14.38
2023-02-09T22:57:03.262Z,13.35
2023-02-09T22:59:04.880Z,12.43
2023-02-09T23:01:07.583Z,13.98
2023-02-09T23:03:09.715Z,13.25
2023-02-09T23:05:11.768Z,12.45
2023-02-09T23:07:13.339Z,12.00
2023-02-09T23:09:15.193Z,17.58
2023-02-09T23:11:17.901Z,17.85
2023-02-09T23:13:19.445Z,12.63
2023-02-09T23:15:21.461Z,14.75
2023-02-09T23:17:23.007Z,15.00
2023-02-09T23:19:24.767Z,16.35
2023-02-09T23:21:29.966Z,14.30
2023-02-09T23:23:31.992Z,14.25
2023-02-09T23:25:33.748Z,16.15
2023-02-09T23:27:35.463Z,17.17
2023-02-09T23:29:37.034Z,18.95
2023-02-09T23:31:39.893Z,11.75
2023-02-09T23:33:41.866Z,12.25
2023-02-09T23:35:43.714Z,12.30
2023-02-09T23:37:45.466Z,11.10
2023-02-09T23:39:47.037Z,15.63
2023-02-09T23:41:48.709Z,18.08
2023-02-09T23:43:51.132Z,15.27
2023-02-09T23:45:53.080Z,17.73
2023-02-09T23:47:54.920Z,16.13
2023-02-09T23:49:57.060Z,15.07
2023-02-09T23:51:58.939Z,16.58
2023-02-09T23:54:03.289Z,14.88
2023-02-09T23:56:05.564Z,15.93
2023-02-09T23:58:07.139Z,14.07
